BENVENUTI AL 154° GRUPPO VIRTUALE
Saturday, 23 May 2020 02:21

OCU1

Written by
Rate this item
(0 votes)
Primo giorno di addestramento OCU su F-14B, Pilot per FRECCIA10 sul 101, Rio per il neo promosso FRECCIA14 sul 103.
Read 1535 times Last modified on Saturday, 23 May 2020 10:44

Media

https://drive.google.com/open?id=18k-JkhTbXZJyRrY_Q21iW8L0Q7MAZglF

11 comments

  • Comment Link zenotync Wednesday, 08 June 2022 08:49 posted by zenotync

    walmart augmentin price augmentin generic staphylococcus aureus augmentin

  • Comment Link geobibly Thursday, 02 June 2022 15:44 posted by geobibly

    hydroxychloroquine hypersensitivity rash black doctor from texas hydroxychloroquine should i take plaquenil

  • Comment Link quodia Saturday, 14 May 2022 08:59 posted by quodia

    itsoktocry viagra levitra vs sildenafil ingrediants in viagra

  • Comment Link Vewcobre Thursday, 12 May 2022 09:18 posted by Vewcobre

    what can i take to enhance cialis cialis doses what does cialis look like

  • Comment Link spoozy Tuesday, 10 May 2022 05:24 posted by spoozy

    cheapest cialis discount cialis cialis 5mg price comparison

  • Comment Link scouts Saturday, 07 May 2022 11:07 posted by scouts

    sildenafil 25 mg viagra price per pill cvs viagra over the counter

  • Comment Link cramma Wednesday, 04 May 2022 10:25 posted by cramma

    cialis price cvs cialis ingredients cialis not working

  • Comment Link Advems Tuesday, 03 May 2022 13:20 posted by Advems

    can i take two 5mg cialis at once http://www.cialiskitch.com/ cialis generic best price

  • Comment Link slobby Monday, 02 May 2022 20:55 posted by slobby

    sildenafil viagra teva viagra sildenafil generic price

  • Comment Link joweds Monday, 02 May 2022 15:02 posted by joweds

    sildenafil price viagra pill online sildenafil

Leave a comment

Make sure you enter all the required information, indicated by an asterisk (*). HTML code is not allowed.

METAR & TAF

[Source: ADDS]
METAR
LIPL 042155Z 24004KT 9999 SCT050 23/20 Q1015 =
LIPL 042000Z 0421/0506 29008KT 9999 FEW025 SCT040 TEMPO 0503/0506 4000 BR
TAF
LIPL 042000Z 0421/0506 29008KT 9999 FEW025 SCT040 TEMPO 0503/0506 4000 BR =

Notice: Undefined index: sun in /web/htdocs/www.154gruppovirtuale.it/home/modules/mod_wx/tmpl/default.php on line 13

Official Tools

CombatFlite Logo  
 
   

Network

Simulation Platform